Domov               UVHVVR             MKGP            O straneh              
ZDRAVSTVENO VARSTVO RASTLIN
  MREŽA AGROMET. POSTAJ
 ► PROGNOSTIČNA OBVESTILA
AGROMETEOROLOŠKI PODATKI -
ARSO
OBVLADOVANJE TVEGANJ ZARADI
NEUGODNIH VREMENSKIH RAZMER
  ► NARAVNE NESREČE
  ► SUŠA/MOČA
  ► NAMAKANJE
  ► ŽLED (gozdarstvo)
KARTOGRAFSKI PRIKAZI
SPLETNE POVEZAVE
PROJEKTI IN PUBLIKACIJE

AGROMETEOROLOŠKA MREŽA: VREMENSKE POSTAJE IN FENOLOŠKA OPAZOVANJA

Pregled podatkov za lokacijo Šlovrenc, meteorološka postaja 859088

Pregled senzorjev na lokaciji

ID Ime Zadnja
vrednost
Datum
zadnje
spremembe
Tip
senzorja
4325 Omočenost lista (U) 0 U 26.3.2019 18:00 A730WET
3976 Padavine (mm) 0 mm 26.3.2019 17:59 Rain-O-Matic
3974 Relativna vlaga 2 m (% RH) 23,27 % RH 26.3.2019 17:59 50YA
3973 Temperatura 2 m (°C) 15,33 °C 26.3.2019 18:00 50YA

Pregled podatkov zadnjih 24 ur

Zap.
št.
Datum in čas Šlovrenc
Omočenost
lista
Padavine Relativna
vlaga
2
m
Temperatura
2
m
1 26.3.2019 17:30
2 26.3.2019 17:00 0 0 23,3 15,3
3 26.3.2019 16:30 0 0 23,8 15,7
4 26.3.2019 16:00 0 0 26,5 15,9
5 26.3.2019 15:30 0 0 25,9 15,9
6 26.3.2019 15:00 0 0 28,2 15,9
7 26.3.2019 14:30 0 0 29,6 15,5
8 26.3.2019 14:00 0 0 30,3 15,2
9 26.3.2019 13:30 0 0 31,1 15,1
10 26.3.2019 13:00 0 0 32,9 15,2
11 26.3.2019 12:30 0 0 32,7 14,8
12 26.3.2019 12:00 0 0 32,3 14,1
13 26.3.2019 11:30 0 0 32,3 14
14 26.3.2019 11:00 0 0 34,4 13,8
15 26.3.2019 10:30 0 0 36,1 13,6
16 26.3.2019 10:00 0 0 40,6 12,7
17 26.3.2019 09:30 0 0 39,5 12,1
18 26.3.2019 09:00 0 0 38,7 12,5
19 26.3.2019 08:30 0 0 39,7 11,5
20 26.3.2019 08:00 0 0 56,7 9,6
21 26.3.2019 07:30 0 0 62,4 7,6
22 26.3.2019 07:00 0 0 63,1 6,5
23 26.3.2019 06:30 0 0 49,8 7,7
24 26.3.2019 06:00 0 0 49,6 8
25 26.3.2019 05:30 0 0 51,5 8
26 26.3.2019 05:00 0 0 52,4 8,2
27 26.3.2019 04:30 0 0 52 8,3
28 26.3.2019 04:00 0 0 53,5 8,2
29 26.3.2019 03:30 0 0 54,5 8,2
30 26.3.2019 03:00 0 0 56,6 8,1
31 26.3.2019 02:30 0 0 58,4 8
32 26.3.2019 02:00 0 0 60 7,8
33 26.3.2019 01:30 0 0 63,8 7,5
34 26.3.2019 01:00 0 0 72,2 6,8
35 26.3.2019 00:30 0 0 75,7 6,6
36 26.3.2019 00:00 5 0 78,8 6,4
37 25.3.2019 23:30 8 0,2 81,2 6,3
38 25.3.2019 23:00 7 1 82,3 6,2
39 25.3.2019 22:30 7 1,2 82,9 6,3
40 25.3.2019 22:00 9 0,8 85,3 6,4
41 25.3.2019 21:30 9 1,8 87 6,3
42 25.3.2019 21:00 10 1,4 89,2 6,9
43 25.3.2019 20:30 10 1,4 85,7 7,9
44 25.3.2019 20:00 10 0,2 69,7 11,2
45 25.3.2019 19:30 0 0 67,3 13,4
46 25.3.2019 19:00 0 0 67,6 13,4
47 25.3.2019 18:30 0 0 63,5 14,1
48 25.3.2019 18:00 0 0 59,5 14,6
© 2011 Ministrstvo za kmetijstvo, gozdarstvo in prehrano. Vse pravice pridržane.